AirNav   Everest Fuels
 
 900 users online  

NJ00 Ridgefield Park Seaplane Base
Ridgefield Park, New Jersey, USA

GOING TO RIDGEFIELD PARK?


FAA INFORMATION EFFECTIVE 21 MAY 2020

Location

FAA Identifier: NJ00
Lat/Long: 40-50-45.3590N 074-01-43.5030W
40-50.755983N 074-01.725050W
40.8459331,-74.0287508
(estimated)
Elevation: 0 ft. / 0 m (estimated)
Variation: 13W (1985)
From city: 1 mile S of RIDGEFIELD PARK, NJ
Time zone: UTC -4 (UTC -5 during Standard Time)
Zip code: 07643

Seaplane Base Operations

Seaplane Base use: Private use. Permission required prior to landing
Control tower: no
ARTCC: NEW YORK CENTER
FSS: MILLVILLE FLIGHT SERVICE STATION
Attendance: JUN-SEP SR-SS, OCT-MAY 0800-1700
Wind indicator: yes
Segmented circle: no

Seaplane Base Communications

WX ASOS at TEB (1.5 nm W): 132.025 (201-393-0855)
WX ASOS at LGA (8 nm SE): PHONE 718-672-6317
WX AWOS-3PT at JRB (9 nm S): 128.175 (212-425-1534)
WX ASOS at EWR (11 nm SW): PHONE 973-621-2892
WX ASOS at CDW (12 nm W): 135.5 (973-575-4417)
WX ASOS at JFK (17 nm SE): 128.725 (718-656-0956)
WX AWOS-3 at LDJ (17 nm SW): 124.025 (908-862-7383)
WX AWOS-3 at MMU (18 nm W): PHONE 973-290-0135
WX ASOS at HPN (20 nm NE): PHONE 914-288-0216

Nearby radio navigation aids

VOR radial/distance  VOR name  Freq  Var
TEBr107/1.5TETERBORO VOR/DME108.4011W
LGAr309/8.2LA GUARDIA VOR/DME113.1012W
CRIr347/15.3CANARSIE VOR/DME112.3011W
JFKr330/17.3KENNEDY VOR/DME115.9012W
SAXr131/26.6SPARTA VORTAC115.7011W
COLr022/32.6COLTS NECK VOR/DME115.4011W
CMKr230/33.0CARMEL VOR/DME116.6012W
DPKr288/33.1DEER PARK VOR/DME117.7012W
SBJr074/36.1SOLBERG VOR/DME112.9010W
BWZr096/36.1BROADWAY VOR/DME114.2011W
STWr114/39.1STILLWATER VOR/DME109.6011W

 
NDB name  Hdg/Dist  Freq  Var  ID
TORBY074/5.321412WTE - .
CHATHAM084/19.325413WCAT -.-. .- -
BABYLON304/31.127514WBBN -... -... -.

Seaplane Base Services

Fuel available: A

Runway Information

Runway 1W/19W

Dimensions: 5500 x 150 ft. / 1676 x 46 m
Surface: water
RUNWAY 1W  RUNWAY 19W
Traffic pattern: leftright
Obstructions: 50 ft. towers, 1000 ft. from runway, 20:1 slope to clear85 ft. bridge, 1500 ft. from runway, 17:1 slope to clear

Seaplane Base Ownership and Management from official FAA records

Ownership: Privately-owned
Owner: AIRSTAR
15 BERGEN TURNPIKE
RIDGEFIELD PARK, NJ 07660
Phone 201-440-5050
Manager: VAL MAZZUCCA
15 BERGEN TURNPIKE
RIDGEFIELD PARK, NJ 07660
Phone 201-440-5050

Seaplane Base Operational Statistics

Aircraft based on the field: 5
Helicopters: 5
    
Aircraft operations: avg 44/week *
65% local general aviation
22% air taxi
13% transient general aviation
* for 12-month period ending 31 July 1990

Additional Remarks

FOR CD CTC NEW YORK APCH AT 800-645-3206.

Instrument Procedures

There are no published instrument procedures at NJ00.

Some nearby airports with instrument procedures:

KTEB - Teterboro Airport (1 nm W)
KJRA - West 30th St Heliport (6 nm S)
6N5 - East 34th Street Heliport (7 nm SE)
KLGA - LaGuardia Airport (8 nm SE)
KJRB - Downtown Manhattan/Wall Street Heliport (9 nm S)
KEWR - Newark Liberty International Airport (11 nm SW)
KCDW - Essex County Airport (12 nm W)
N07 - Lincoln Park Airport (14 nm NW)
KJFK - John F Kennedy International Airport (17 nm SE)
KLDJ - Linden Airport (17 nm SW)
 
Loc | Ops | Rwys | IFR | FBO | Links
Com | Nav | Svcs | Stats | Notes
Area around NJ00 (Ridgefield Park Seaplane Base)
 
Road maps at: MapQuest Bing Google
 
Aerial photo
No photo
 
Sectional chart

 
Airport distance calculator
Flying to Ridgefield Park Seaplane Base? Find the distance to fly.

From to NJ00

Sunrise and sunset
Times for 31-May-2020
 Local
(UTC-4)
 Zulu
(UTC)
Morning civil twilight04:5508:55
Sunrise05:2809:28
Sunset20:2000:20
Evening civil twilight20:5300:53

Current date and time
Zulu (UTC)  31-May-2020 14:21:23
Local (UTC-4)  31-May-2020 10:21:23
 
METAR
KTEB 
2nm NW 
311351Z 35010KT 10SM CLR 17/04 A3007 RMK AO2 SLP182 T01720039
KNYC 
5nm SE 
311351Z 10SM CLR 16/02 A3010 RMK AO2 SLP185 T01560017 $
KLGA 
8nm SE 
311351Z 32013KT 10SM FEW050 17/02 A3007 RMK AO2 SLP182 T01720017
KJRB 
9nm S 
311356Z AUTO VRB04KT 10SM CLR 19/03 A3009 RMK AO2 SLP189 T01890033
KEWR 
12nm SW 
311351Z 32017G21KT 10SM FEW040 18/02 A3008 RMK AO2 SLP186 T01830017
KCDW 
12nm W 
311353Z 36008G18KT 290V040 10SM CLR 17/03 A3010 RMK AO2 SLP196 T01720028
KLDJ 
17nm SW 
311355Z AUTO 33015G22KT 10SM CLR 17/02 A3009 RMK AO2 T01740019
KJFK 
17nm SE 
311351Z 32009KT 10SM FEW050 18/03 A3008 RMK AO2 SLP187 T01780028
KMMU 
18nm W 
311345Z 02011G20KT 10SM FEW045 16/05 A3010
KHPN 
20nm NE 
311356Z 35011KT 10SM FEW040 16/03 A3006 RMK AO2 SLP177 T01610033
TAF
KTEB 
2nm NW 
311130Z 3112/0118 33013G21KT P6SM FEW050 FM311600 32011G18KT P6SM FEW050 FM010200 33009KT P6SM FEW080 FM010500 31004KT P6SM FEW080 FM011400 30012KT P6SM SCT040 SCT250
KLGA 
8nm SE 
311130Z 3112/0118 33015G23KT P6SM FEW050 FM311700 32013G19KT P6SM FEW050 FM010400 34011KT P6SM FEW080 FM010800 32008KT P6SM FEW080 FM011400 31012KT P6SM SCT050 SCT250
KEWR 
12nm SW 
311130Z 3112/0118 33015G23KT P6SM FEW050 FM311600 32014G20KT P6SM FEW050 FM010400 33012KT P6SM FEW080 FM010700 30007KT P6SM FEW080 FM011400 30014KT P6SM SCT040 SCT250
KJFK 
17nm SE 
311130Z 3112/0118 33016G24KT P6SM FEW050 FM311700 32014G20KT P6SM FEW050 FM010400 34012KT P6SM FEW080 FM010700 31009KT P6SM FEW080 FM011400 29013KT P6SM SCT050 SCT250
KHPN 
20nm NE 
311130Z 3112/0112 32012KT P6SM SKC FM311300 32015G20KT P6SM FEW050 FM311700 32012G18KT P6SM FEW050 FM010000 32010KT P6SM FEW080 FM010800 31007KT P6SM FEW080 AMD NOT SKED
NOTAMs
Click for the latest NOTAMs
NOTAMs are issued by the DoD/FAA and will open in a separate window not controlled by AirNav.

 

 
 

Would you like to see your business listed on this page?

 If your business provides an interesting product or service to pilots, flight crews, aircraft, or users of the Ridgefield Park Seaplane Base, you should consider listing it here.  To start the listing process, click on the button below
 
Add a business
 

Other Pages about Ridgefield Park Seaplane Base

Update a link
 
Copyright © AirNav, LLC. All rights reserved. Privacy Policy  Contact